createdAt,value
2019-05-16T00:00:55.379Z,9.97
2019-05-16T00:01:55.363Z,9.93
2019-05-16T00:02:55.366Z,9.86
2019-05-16T00:03:55.336Z,9.90
2019-05-16T00:04:55.327Z,9.89
2019-05-16T00:05:55.342Z,9.86
2019-05-16T00:06:55.305Z,9.75
2019-05-16T00:07:55.319Z,9.84
2019-05-16T00:08:55.280Z,9.74
2019-05-16T00:09:55.270Z,9.76
2019-05-16T00:10:55.263Z,9.69
2019-05-16T00:11:55.253Z,9.69
2019-05-16T00:12:55.252Z,9.76
2019-05-16T00:13:55.231Z,9.72
2019-05-16T00:14:55.220Z,9.79
2019-05-16T00:15:55.202Z,9.71
2019-05-16T00:16:55.213Z,9.64
2019-05-16T00:17:55.192Z,9.60
2019-05-16T00:18:55.177Z,9.65
2019-05-16T00:19:55.165Z,9.72
2019-05-16T00:20:55.151Z,9.65
2019-05-16T00:21:55.141Z,9.66
2019-05-16T00:22:55.138Z,9.57
2019-05-16T00:23:55.112Z,9.61
2019-05-16T00:24:55.112Z,9.48
2019-05-16T00:25:55.095Z,9.53
2019-05-16T00:26:55.084Z,9.47
2019-05-16T00:27:55.094Z,9.47
2019-05-16T00:28:55.057Z,9.47
2019-05-16T00:29:55.045Z,9.42
2019-05-16T00:30:55.033Z,9.35
2019-05-16T00:31:55.027Z,9.38
2019-05-16T00:32:55.028Z,9.36
2019-05-16T00:33:55.011Z,9.32
2019-05-16T00:34:54.996Z,9.40
2019-05-16T00:36:02.473Z,9.33
2019-05-16T00:36:58.048Z,9.36
2019-05-16T00:37:55.007Z,9.33
2019-05-16T00:38:54.949Z,9.38
2019-05-16T00:39:54.937Z,9.42
2019-05-16T00:40:54.919Z,9.39
2019-05-16T00:41:54.909Z,9.39
2019-05-16T00:42:54.906Z,9.33
2019-05-16T00:43:54.890Z,9.26
2019-05-16T00:44:54.874Z,9.26
2019-05-16T00:45:54.871Z,9.20
2019-05-16T00:46:54.857Z,9.29
2019-05-16T00:47:54.856Z,9.29
2019-05-16T00:48:54.831Z,9.35
2019-05-16T00:49:54.829Z,9.28
2019-05-16T00:50:54.817Z,9.35
2019-05-16T00:51:54.802Z,9.33
2019-05-16T00:52:54.797Z,9.35
2019-05-16T00:53:54.780Z,9.29
2019-05-16T00:54:54.768Z,9.35
2019-05-16T00:55:54.752Z,9.29
2019-05-16T00:56:54.764Z,9.24
2019-05-16T00:57:54.729Z,9.21
2019-05-16T00:58:54.737Z,9.24
2019-05-16T00:59:54.712Z,9.31
2019-05-16T01:00:54.694Z,9.28
2019-05-16T01:01:54.695Z,9.21
2019-05-16T01:02:54.680Z,9.20
2019-05-16T01:03:54.676Z,9.15
2019-05-16T01:04:54.697Z,9.26
2019-05-16T01:05:54.646Z,9.17
2019-05-16T01:06:54.635Z,9.24
2019-05-16T01:07:54.619Z,9.15
2019-05-16T01:08:54.615Z,9.17
2019-05-16T01:09:54.601Z,9.14
2019-05-16T01:10:54.586Z,9.18
2019-05-16T01:11:54.574Z,9.18
2019-05-16T01:12:54.559Z,9.18
2019-05-16T01:13:54.581Z,9.15
2019-05-16T01:14:54.545Z,9.14
2019-05-16T01:15:54.525Z,9.11
2019-05-16T01:16:54.519Z,9.13
2019-05-16T01:17:54.507Z,9.14
2019-05-16T01:18:54.512Z,9.14
2019-05-16T01:19:54.485Z,9.18
2019-05-16T01:20:54.475Z,9.08
2019-05-16T01:21:54.465Z,9.15
2019-05-16T01:22:54.453Z,9.14
2019-05-16T01:23:54.441Z,9.17
2019-05-16T01:24:54.429Z,9.15
2019-05-16T01:25:54.420Z,9.17
2019-05-16T01:26:54.411Z,9.14
2019-05-16T01:27:54.395Z,9.17
2019-05-16T01:28:54.393Z,9.20
2019-05-16T01:29:54.376Z,9.18
2019-05-16T01:30:54.363Z,9.17
2019-05-16T01:31:54.347Z,9.13
2019-05-16T01:32:54.335Z,9.13
2019-05-16T01:33:54.336Z,9.02
2019-05-16T01:34:54.310Z,9.13
2019-05-16T01:35:54.302Z,9.15
2019-05-16T01:36:54.290Z,9.14
2019-05-16T01:37:54.289Z,9.01
2019-05-16T01:38:54.293Z,9.10
2019-05-16T01:39:54.254Z,9.05
2019-05-16T01:40:54.248Z,9.02
2019-05-16T01:41:54.238Z,9.11
2019-05-16T01:42:54.225Z,9.04
2019-05-16T01:43:54.254Z,9.02
2019-05-16T01:44:54.205Z,9.04
2019-05-16T01:45:54.187Z,9.04
2019-05-16T01:46:54.184Z,9.01
2019-05-16T01:47:54.165Z,9.10
2019-05-16T01:48:54.165Z,9.04
2019-05-16T01:49:54.146Z,9.11
2019-05-16T01:50:54.132Z,9.13
2019-05-16T01:51:54.134Z,9.11
2019-05-16T01:52:54.125Z,9.10
2019-05-16T01:53:54.137Z,9.10
2019-05-16T01:54:54.096Z,9.13
2019-05-16T01:55:54.075Z,9.04
2019-05-16T01:56:54.067Z,9.13
2019-05-16T01:57:54.053Z,9.14
2019-05-16T01:58:54.055Z,9.14
2019-05-16T01:59:54.038Z,9.17
2019-05-16T02:01:10.491Z,9.14
2019-05-16T02:01:55.005Z,9.13
2019-05-16T02:02:53.999Z,9.14
2019-05-16T02:03:54.024Z,9.14
2019-05-16T02:04:53.977Z,9.15
2019-05-16T02:05:53.966Z,9.15
2019-05-16T02:06:55.106Z,9.13
2019-05-16T02:07:53.943Z,9.18
2019-05-16T02:08:53.932Z,9.15
2019-05-16T02:09:53.930Z,9.15
2019-05-16T02:10:53.910Z,9.17
2019-05-16T02:11:53.898Z,9.13
2019-05-16T02:12:53.886Z,9.20
2019-05-16T02:13:53.881Z,9.15
2019-05-16T02:14:53.887Z,9.13
2019-05-16T02:15:53.865Z,9.17
2019-05-16T02:16:53.847Z,9.11
2019-05-16T02:17:53.838Z,9.17
2019-05-16T02:18:53.821Z,9.20
2019-05-16T02:19:53.818Z,9.23
2019-05-16T02:20:53.795Z,9.17
2019-05-16T02:21:53.792Z,9.21
2019-05-16T02:22:53.774Z,9.24
2019-05-16T02:23:53.764Z,9.21
2019-05-16T02:24:53.764Z,9.28
2019-05-16T02:25:53.758Z,9.23
2019-05-16T02:26:53.735Z,9.24
2019-05-16T02:27:53.724Z,9.24
2019-05-16T02:28:53.721Z,9.21
2019-05-16T02:29:53.700Z,9.23
2019-05-16T02:30:53.684Z,9.24
2019-05-16T02:31:53.673Z,9.21
2019-05-16T02:32:53.660Z,9.21
2019-05-16T02:33:53.646Z,9.32
2019-05-16T02:34:53.655Z,9.33
2019-05-16T02:35:55.588Z,9.28
2019-05-16T02:37:14.710Z,9.35
2019-05-16T02:37:55.275Z,9.33
2019-05-16T02:38:55.533Z,9.33
2019-05-16T02:39:54.475Z,9.29
2019-05-16T02:40:55.231Z,9.29
2019-05-16T02:41:53.559Z,9.29
2019-05-16T02:42:56.170Z,9.35
2019-05-16T02:43:53.543Z,9.35
2019-05-16T02:44:53.540Z,9.35
2019-05-16T02:45:53.511Z,9.33
2019-05-16T02:46:53.498Z,9.31
2019-05-16T02:47:53.492Z,9.33
2019-05-16T02:48:53.482Z,9.32
2019-05-16T02:49:53.480Z,9.32
2019-05-16T02:50:53.470Z,9.35
2019-05-16T02:51:53.461Z,9.32
2019-05-16T02:52:53.430Z,9.29
2019-05-16T02:53:53.424Z,9.39
2019-05-16T02:54:53.437Z,9.31
2019-05-16T02:55:53.400Z,9.29
2019-05-16T02:56:53.386Z,9.38
2019-05-16T02:57:53.391Z,9.35
2019-05-16T02:58:53.362Z,9.32
2019-05-16T02:59:53.373Z,9.32
2019-05-16T03:00:53.347Z,9.39
2019-05-16T03:01:53.336Z,9.32
2019-05-16T03:02:53.316Z,9.28
2019-05-16T03:03:53.307Z,9.33
2019-05-16T03:04:53.321Z,9.26
2019-05-16T03:05:53.308Z,9.35
2019-05-16T03:06:53.284Z,9.33
2019-05-16T03:07:53.262Z,9.32
2019-05-16T03:08:53.254Z,9.32
2019-05-16T03:09:53.251Z,9.35
2019-05-16T03:10:53.235Z,9.32
2019-05-16T03:11:53.216Z,9.24
2019-05-16T03:12:53.206Z,9.38
2019-05-16T03:13:53.197Z,9.29
2019-05-16T03:14:54.659Z,9.28
2019-05-16T03:15:53.192Z,9.24
2019-05-16T03:16:53.174Z,9.33
2019-05-16T03:17:53.161Z,9.23
2019-05-16T03:18:53.136Z,9.24
2019-05-16T03:19:53.140Z,9.23
2019-05-16T03:20:53.130Z,9.28
2019-05-16T03:21:53.109Z,9.32
2019-05-16T03:22:53.101Z,9.28
2019-05-16T03:23:53.086Z,9.21
2019-05-16T03:24:53.073Z,9.31
2019-05-16T03:25:53.080Z,9.23
2019-05-16T03:26:53.055Z,9.31
2019-05-16T03:27:53.038Z,9.24
2019-05-16T03:28:53.032Z,9.20
2019-05-16T03:29:53.011Z,9.24
2019-05-16T03:30:54.827Z,9.24
2019-05-16T03:31:54.747Z,9.31
2019-05-16T03:32:54.864Z,9.33
2019-05-16T03:33:59.606Z,9.26
2019-05-16T03:34:55.002Z,9.28
2019-05-16T03:35:55.338Z,9.38
2019-05-16T03:36:54.756Z,9.36
2019-05-16T03:37:59.642Z,9.18
2019-05-16T03:38:53.908Z,9.31
2019-05-16T03:39:52.901Z,9.39
2019-05-16T03:40:52.905Z,9.28
2019-05-16T03:41:52.885Z,9.36
2019-05-16T03:42:52.869Z,9.38
2019-05-16T03:43:52.854Z,9.38
2019-05-16T03:44:52.849Z,9.32
2019-05-16T03:45:52.848Z,9.29
2019-05-16T03:46:52.842Z,9.38
2019-05-16T03:47:52.839Z,9.33
2019-05-16T03:48:52.800Z,9.42
2019-05-16T03:49:52.794Z,9.38
2019-05-16T03:50:52.792Z,9.38
2019-05-16T03:51:52.774Z,9.36
2019-05-16T03:52:52.752Z,9.43
2019-05-16T03:53:52.743Z,9.40
2019-05-16T03:54:52.735Z,9.50
2019-05-16T03:55:52.731Z,9.51
2019-05-16T03:56:52.710Z,9.50
2019-05-16T03:57:52.703Z,9.46
2019-05-16T03:58:52.701Z,9.54
2019-05-16T03:59:52.673Z,9.50
2019-05-16T04:00:54.457Z,9.50
2019-05-16T04:01:52.650Z,9.36
2019-05-16T04:02:52.641Z,9.46
2019-05-16T04:03:52.634Z,9.47
2019-05-16T04:04:52.634Z,9.48
2019-05-16T04:05:53.119Z,9.46
2019-05-16T04:06:52.601Z,9.56
2019-05-16T04:08:09.992Z,9.54
2019-05-16T04:08:53.594Z,9.60
2019-05-16T04:09:52.577Z,9.50
2019-05-16T04:10:52.820Z,9.46
2019-05-16T04:11:52.551Z,9.65
2019-05-16T04:12:52.530Z,9.57
2019-05-16T04:13:52.515Z,9.56
2019-05-16T04:14:52.509Z,9.66
2019-05-16T04:15:53.143Z,9.57
2019-05-16T04:16:52.496Z,9.54
2019-05-16T04:17:52.470Z,9.58
2019-05-16T04:18:52.464Z,9.60
2019-05-16T04:19:52.465Z,9.56
2019-05-16T04:20:53.008Z,9.58
2019-05-16T04:21:52.451Z,9.60
2019-05-16T04:22:52.420Z,9.58
2019-05-16T04:23:52.404Z,9.71
2019-05-16T04:24:52.406Z,9.65
2019-05-16T04:25:53.061Z,9.64
2019-05-16T04:26:52.383Z,9.64
2019-05-16T04:27:52.360Z,9.64
2019-05-16T04:28:52.354Z,9.66
2019-05-16T04:29:52.343Z,9.74
2019-05-16T04:30:52.337Z,9.72
2019-05-16T04:31:52.334Z,9.71
2019-05-16T04:32:52.316Z,9.72
2019-05-16T04:33:52.297Z,9.75
2019-05-16T04:34:52.282Z,9.74
2019-05-16T04:35:53.222Z,9.74
2019-05-16T04:36:52.268Z,9.75
2019-05-16T04:37:52.254Z,9.75
2019-05-16T04:38:52.234Z,9.74
2019-05-16T04:39:52.227Z,9.78
2019-05-16T04:40:52.267Z,9.75
2019-05-16T04:41:52.228Z,9.74
2019-05-16T04:42:52.192Z,9.75
2019-05-16T04:43:52.182Z,9.76
2019-05-16T04:44:52.180Z,9.68
2019-05-16T04:45:52.889Z,9.72
2019-05-16T04:46:52.151Z,9.71
2019-05-16T04:47:52.130Z,9.74
2019-05-16T04:48:52.128Z,9.72
2019-05-16T04:49:52.195Z,9.76
2019-05-16T04:50:52.619Z,9.75
2019-05-16T04:51:52.130Z,9.69
2019-05-16T04:52:52.092Z,9.72
2019-05-16T04:53:52.080Z,9.79
2019-05-16T04:54:52.060Z,9.75
2019-05-16T04:55:52.329Z,9.87
2019-05-16T04:56:52.066Z,9.76
2019-05-16T04:57:52.016Z,9.79
2019-05-16T04:58:52.016Z,9.81
2019-05-16T04:59:51.999Z,9.76
2019-05-16T05:00:52.443Z,9.71
2019-05-16T05:01:51.986Z,9.72
2019-05-16T05:02:52.127Z,9.74
2019-05-16T05:04:08.745Z,9.75
2019-05-16T05:04:52.943Z,9.75
2019-05-16T05:05:52.201Z,9.74
2019-05-16T05:06:55.559Z,9.76
2019-05-16T05:07:51.911Z,9.75
2019-05-16T05:08:58.342Z,9.81
2019-05-16T05:09:52.885Z,9.74
2019-05-16T05:10:52.192Z,9.78
2019-05-16T05:11:52.248Z,9.83
2019-05-16T05:12:51.861Z,9.86
2019-05-16T05:13:51.846Z,9.81
2019-05-16T05:14:51.825Z,9.83
2019-05-16T05:15:51.815Z,9.89
2019-05-16T05:16:51.807Z,9.87
2019-05-16T05:17:51.800Z,9.91
2019-05-16T05:18:51.833Z,9.93
2019-05-16T05:19:51.781Z,9.93
2019-05-16T05:20:52.765Z,9.86
2019-05-16T05:21:51.747Z,9.89
2019-05-16T05:22:51.743Z,9.89
2019-05-16T05:23:51.725Z,9.94
2019-05-16T05:24:51.719Z,9.91
2019-05-16T05:25:51.892Z,9.97
2019-05-16T05:26:51.692Z,9.99
2019-05-16T05:27:51.692Z,9.97
2019-05-16T05:28:51.672Z,9.99
2019-05-16T05:29:51.661Z,10.02
2019-05-16T05:30:51.652Z,9.97
2019-05-16T05:31:54.914Z,10.01
2019-05-16T05:32:51.633Z,9.94
2019-05-16T05:33:51.610Z,9.96
2019-05-16T05:34:51.608Z,9.99
2019-05-16T05:35:51.607Z,9.94
2019-05-16T05:36:51.582Z,10.01
2019-05-16T05:37:51.598Z,9.99
2019-05-16T05:39:06.450Z,9.99
2019-05-16T05:39:52.550Z,9.99
2019-05-16T05:40:51.859Z,9.96
2019-05-16T05:41:51.523Z,9.97
2019-05-16T05:42:51.526Z,9.96
2019-05-16T05:43:54.374Z,9.97
2019-05-16T05:44:51.493Z,10.02
2019-05-16T05:45:51.768Z,10.01
2019-05-16T05:46:51.472Z,10.07
2019-05-16T05:47:51.475Z,10.01
2019-05-16T05:48:51.449Z,9.99
2019-05-16T05:49:51.440Z,10.01
2019-05-16T05:50:51.424Z,10.02
2019-05-16T05:51:51.414Z,10.01
2019-05-16T05:52:51.423Z,10.01
2019-05-16T05:53:51.391Z,10.02
2019-05-16T05:54:51.398Z,10.09
2019-05-16T05:55:51.885Z,10.11
2019-05-16T05:56:51.369Z,10.04
2019-05-16T05:57:51.366Z,10.09
2019-05-16T05:58:51.411Z,10.04
2019-05-16T05:59:51.344Z,10.05
2019-05-16T06:00:52.350Z,10.09
2019-05-16T06:01:51.916Z,10.12
2019-05-16T06:02:51.314Z,10.08
2019-05-16T06:03:51.289Z,10.12
2019-05-16T06:04:51.275Z,10.20
2019-05-16T06:05:51.267Z,10.17
2019-05-16T06:06:51.251Z,10.20
2019-05-16T06:07:51.256Z,10.25
2019-05-16T06:08:51.235Z,10.23
2019-05-16T06:09:56.216Z,10.17
2019-05-16T06:10:52.219Z,10.23
2019-05-16T06:11:51.208Z,10.18
2019-05-16T06:12:51.190Z,10.14
2019-05-16T06:13:51.173Z,10.15
2019-05-16T06:14:51.164Z,10.22
2019-05-16T06:15:51.460Z,10.17
2019-05-16T06:16:51.157Z,10.17
2019-05-16T06:17:51.147Z,10.25
2019-05-16T06:18:51.127Z,10.20
2019-05-16T06:19:51.116Z,10.17
2019-05-16T06:20:51.622Z,10.22
2019-05-16T06:21:51.090Z,10.18
2019-05-16T06:22:51.135Z,10.14
2019-05-16T06:23:51.147Z,10.20
2019-05-16T06:24:51.058Z,10.23
2019-05-16T06:25:51.213Z,10.20
2019-05-16T06:26:51.031Z,10.30
2019-05-16T06:27:51.292Z,10.23
2019-05-16T06:28:51.027Z,10.29
2019-05-16T06:29:51.002Z,10.26
2019-05-16T06:30:51.934Z,10.33
2019-05-16T06:31:50.992Z,10.34
2019-05-16T06:32:50.971Z,10.33
2019-05-16T06:33:50.985Z,10.32
2019-05-16T06:34:50.991Z,10.34
2019-05-16T06:35:51.603Z,10.41
2019-05-16T06:36:51.202Z,10.33
2019-05-16T06:37:50.918Z,10.40
2019-05-16T06:38:50.920Z,10.41
2019-05-16T06:39:50.890Z,10.36
2019-05-16T06:40:52.747Z,10.42
2019-05-16T06:41:51.219Z,10.41
2019-05-16T06:42:51.131Z,10.41
2019-05-16T06:43:50.926Z,10.40
2019-05-16T06:44:50.866Z,10.40
2019-05-16T06:45:51.494Z,10.42
2019-05-16T06:47:08.482Z,10.44
2019-05-16T06:47:51.806Z,10.47
2019-05-16T06:48:50.822Z,10.47
2019-05-16T06:49:51.052Z,10.53
2019-05-16T06:50:51.739Z,10.48
2019-05-16T06:51:51.479Z,10.51
2019-05-16T06:52:50.759Z,10.48
2019-05-16T06:53:50.752Z,10.55
2019-05-16T06:54:53.723Z,10.47
2019-05-16T06:55:50.714Z,10.48
2019-05-16T06:56:51.067Z,10.52
2019-05-16T06:57:50.702Z,10.42
2019-05-16T06:58:51.918Z,10.44
2019-05-16T06:59:50.672Z,10.55
2019-05-16T07:00:52.346Z,10.60
2019-05-16T07:01:50.644Z,10.53
2019-05-16T07:02:50.650Z,10.47
2019-05-16T07:03:50.931Z,10.53
2019-05-16T07:04:50.784Z,10.55
2019-05-16T07:05:50.809Z,10.56
2019-05-16T07:06:58.607Z,10.60
2019-05-16T07:07:51.584Z,10.53
2019-05-16T07:08:50.983Z,10.42
2019-05-16T07:10:00.063Z,10.53
2019-05-16T07:10:51.543Z,10.48
2019-05-16T07:11:50.582Z,10.51
2019-05-16T07:12:50.618Z,10.56
2019-05-16T07:13:51.944Z,10.55
2019-05-16T07:14:50.754Z,10.56
2019-05-16T07:15:50.573Z,10.60
2019-05-16T07:16:50.471Z,10.59
2019-05-16T07:17:50.808Z,10.61
2019-05-16T07:18:50.773Z,10.64
2019-05-16T07:19:50.464Z,10.67
2019-05-16T07:20:51.338Z,10.71
2019-05-16T07:21:50.938Z,10.70
2019-05-16T07:22:50.577Z,10.70
2019-05-16T07:23:51.084Z,10.67
2019-05-16T07:24:50.592Z,10.68
2019-05-16T07:25:50.855Z,10.60
2019-05-16T07:26:50.396Z,10.68
2019-05-16T07:27:51.063Z,10.67
2019-05-16T07:28:51.499Z,10.64
2019-05-16T07:29:50.794Z,10.68
2019-05-16T07:30:50.449Z,10.66
2019-05-16T07:31:52.345Z,10.70
2019-05-16T07:32:50.293Z,10.68
2019-05-16T07:33:50.404Z,10.60
2019-05-16T07:34:50.284Z,10.63
2019-05-16T07:35:51.258Z,10.51
2019-05-16T07:36:50.455Z,10.52
2019-05-16T07:37:50.236Z,10.56
2019-05-16T07:38:50.824Z,10.56
2019-05-16T07:39:51.132Z,10.61
2019-05-16T07:40:51.252Z,10.53
2019-05-16T07:41:50.872Z,10.52
2019-05-16T07:42:50.954Z,10.55
2019-05-16T07:43:50.703Z,10.52
2019-05-16T07:44:50.704Z,10.48
2019-05-16T07:45:51.410Z,10.48
2019-05-16T07:46:51.502Z,10.51
2019-05-16T07:47:50.979Z,10.47
2019-05-16T07:48:51.827Z,10.51
2019-05-16T07:49:50.287Z,10.53
2019-05-16T07:50:50.322Z,10.47
2019-05-16T07:51:50.071Z,10.44
2019-05-16T07:52:51.121Z,10.47
2019-05-16T07:53:50.647Z,10.51
2019-05-16T07:54:50.720Z,10.52
2019-05-16T07:55:50.896Z,10.56
2019-05-16T07:56:59.576Z,10.55
2019-05-16T07:57:51.010Z,10.56
2019-05-16T07:58:50.778Z,10.63
2019-05-16T07:59:50.687Z,10.56
2019-05-16T08:01:01.916Z,10.63
2019-05-16T08:01:54.022Z,10.67
2019-05-16T08:02:50.587Z,10.56
2019-05-16T08:03:50.910Z,10.63
2019-05-16T08:04:50.302Z,10.63
2019-05-16T08:05:51.457Z,10.63
2019-05-16T08:06:50.285Z,10.67
2019-05-16T08:07:51.243Z,10.66
2019-05-16T08:08:50.914Z,10.63
2019-05-16T08:09:50.561Z,10.64
2019-05-16T08:10:50.974Z,10.64
2019-05-16T08:11:50.210Z,10.63
2019-05-16T08:12:51.264Z,10.66
2019-05-16T08:13:50.785Z,10.64
2019-05-16T08:14:50.270Z,10.67
2019-05-16T08:15:50.518Z,10.64
2019-05-16T08:16:50.271Z,10.67
2019-05-16T08:17:51.150Z,10.66
2019-05-16T08:18:50.611Z,10.64
2019-05-16T08:21:50.788Z,10.79
2019-05-16T08:22:50.765Z,10.71
2019-05-16T08:23:50.558Z,10.78
2019-05-16T08:24:50.566Z,10.70
2019-05-16T08:25:50.773Z,10.68
2019-05-16T08:26:51.453Z,10.73
2019-05-16T08:27:52.056Z,10.67
2019-05-16T08:28:50.541Z,10.74
2019-05-16T08:29:51.338Z,10.79
2019-05-16T08:30:52.935Z,10.78
2019-05-16T08:31:52.830Z,10.76
2019-05-16T08:32:52.871Z,10.78
2019-05-16T08:33:53.618Z,10.79
2019-05-16T08:34:51.506Z,10.74
2019-05-16T08:36:51.940Z,10.71
2019-05-16T08:37:51.571Z,10.74
2019-05-16T08:38:51.650Z,10.76
2019-05-16T08:39:50.979Z,10.86
2019-05-16T08:41:05.999Z,10.82
2019-05-16T08:41:52.070Z,10.85
2019-05-16T08:42:51.992Z,10.79
2019-05-16T08:43:53.301Z,10.79
2019-05-16T08:44:51.747Z,10.78
2019-05-16T08:45:51.522Z,10.76
2019-05-16T08:47:52.559Z,10.79
2019-05-16T08:48:54.040Z,10.79
2019-05-16T08:49:52.167Z,10.67
2019-05-16T08:50:04.937Z,10.67
2019-05-16T08:50:04.937Z,10.63
2019-05-16T08:50:08.650Z,10.76
2019-05-16T08:50:09.656Z,10.71
2019-05-16T08:50:53.819Z,10.74
2019-05-16T08:51:52.899Z,10.76
2019-05-16T08:52:52.909Z,10.68
2019-05-16T08:53:50.430Z,10.66
2019-05-16T08:54:51.054Z,10.73
2019-05-16T08:55:50.598Z,10.82
2019-05-16T08:56:50.993Z,10.78
2019-05-16T08:57:52.975Z,10.84
2019-05-16T08:58:53.950Z,10.79
2019-05-16T08:59:52.432Z,10.78
2019-05-16T09:00:54.700Z,10.81
2019-05-16T09:01:56.803Z,10.79
2019-05-16T09:02:52.541Z,10.79
2019-05-16T09:03:52.012Z,10.84
2019-05-16T09:04:53.123Z,10.81
2019-05-16T09:05:52.979Z,10.89
2019-05-16T09:06:52.365Z,10.73
2019-05-16T09:07:49.217Z,10.78
2019-05-16T09:08:49.211Z,10.76
2019-05-16T09:09:51.901Z,10.88
2019-05-16T09:11:00.634Z,10.74
2019-05-16T09:11:50.171Z,10.74
2019-05-16T09:12:49.168Z,10.74
2019-05-16T09:13:49.159Z,10.79
2019-05-16T09:14:49.156Z,10.76
2019-05-16T09:15:49.146Z,10.74
2019-05-16T09:16:49.134Z,10.82
2019-05-16T09:17:49.115Z,10.88
2019-05-16T09:18:51.000Z,10.78
2019-05-16T09:19:49.087Z,10.89
2019-05-16T09:20:50.326Z,10.76
2019-05-16T09:21:49.086Z,10.81
2019-05-16T09:22:49.079Z,10.79
2019-05-16T09:23:49.053Z,10.82
2019-05-16T09:24:49.043Z,10.79
2019-05-16T09:25:49.366Z,10.88
2019-05-16T09:26:49.011Z,10.81
2019-05-16T09:27:48.996Z,10.88
2019-05-16T09:28:48.996Z,10.88
2019-05-16T09:29:48.976Z,10.94
2019-05-16T09:30:48.989Z,10.82
2019-05-16T09:32:06.577Z,10.92
2019-05-16T09:32:49.952Z,10.86
2019-05-16T09:33:48.935Z,10.99
2019-05-16T09:34:48.918Z,10.96
2019-05-16T09:35:48.927Z,10.85
2019-05-16T09:36:48.914Z,10.88
2019-05-16T09:37:48.882Z,10.89
2019-05-16T09:38:48.930Z,10.88
2019-05-16T09:39:48.867Z,10.82
2019-05-16T09:40:48.866Z,10.94
2019-05-16T09:41:54.449Z,10.86
2019-05-16T09:42:49.840Z,10.89
2019-05-16T09:43:49.082Z,10.86
2019-05-16T09:44:48.801Z,10.84
2019-05-16T09:45:48.798Z,10.97
2019-05-16T09:46:48.778Z,10.91
2019-05-16T09:47:48.818Z,10.92
2019-05-16T09:48:48.761Z,10.97
2019-05-16T09:49:48.746Z,10.97
2019-05-16T09:50:48.729Z,10.94
2019-05-16T09:51:48.738Z,10.94
2019-05-16T09:52:48.714Z,10.92
2019-05-16T09:53:48.708Z,10.92
2019-05-16T09:54:48.692Z,10.99
2019-05-16T09:55:48.684Z,11.11
2019-05-16T09:56:48.683Z,11.11
2019-05-16T09:57:48.651Z,11.00
2019-05-16T09:58:48.646Z,11.06
2019-05-16T09:59:48.631Z,11.06
2019-05-16T10:00:48.623Z,11.04
2019-05-16T10:01:48.614Z,11.14
2019-05-16T10:02:48.625Z,11.17
2019-05-16T10:03:48.603Z,11.17
2019-05-16T10:04:48.575Z,11.06
2019-05-16T10:05:48.557Z,11.07
2019-05-16T10:06:48.553Z,11.14
2019-05-16T10:07:48.566Z,11.19
2019-05-16T10:08:48.530Z,11.15
2019-05-16T10:09:50.116Z,11.14
2019-05-16T10:10:48.502Z,11.17
2019-05-16T10:11:49.466Z,11.14
2019-05-16T10:12:49.496Z,11.10
2019-05-16T10:13:48.468Z,11.19
2019-05-16T10:14:48.460Z,11.22
2019-05-16T10:15:48.447Z,11.28
2019-05-16T10:16:48.450Z,11.21
2019-05-16T10:17:48.432Z,11.21
2019-05-16T10:18:48.414Z,11.24
2019-05-16T10:19:48.412Z,11.22
2019-05-16T10:20:48.396Z,11.33
2019-05-16T10:21:48.392Z,11.35
2019-05-16T10:22:50.610Z,11.28
2019-05-16T10:23:48.365Z,11.33
2019-05-16T10:24:48.345Z,11.40
2019-05-16T10:25:48.340Z,11.36
2019-05-16T10:26:53.623Z,11.43
2019-05-16T10:27:48.314Z,11.51
2019-05-16T10:28:48.305Z,11.52
2019-05-16T10:29:48.702Z,11.58
2019-05-16T10:30:50.195Z,11.64
2019-05-16T10:31:52.683Z,11.64
2019-05-16T10:32:49.267Z,11.62
2019-05-16T10:33:48.245Z,11.76
2019-05-16T10:34:48.239Z,11.61
2019-05-16T10:35:48.323Z,11.65
2019-05-16T10:36:48.221Z,11.67
2019-05-16T10:37:48.220Z,11.72
2019-05-16T10:38:48.585Z,11.75
2019-05-16T10:39:48.187Z,11.69
2019-05-16T10:40:48.183Z,11.70
2019-05-16T10:41:48.171Z,11.72
2019-05-16T10:42:48.141Z,11.73
2019-05-16T10:43:48.130Z,11.73
2019-05-16T10:44:48.696Z,11.78
2019-05-16T10:45:48.113Z,11.79
2019-05-16T10:46:48.191Z,11.70
2019-05-16T10:47:48.284Z,11.82
2019-05-16T10:48:48.077Z,11.70
2019-05-16T10:49:48.066Z,11.82
2019-05-16T10:50:48.160Z,11.85
2019-05-16T10:51:48.134Z,11.88
2019-05-16T10:53:06.971Z,11.94
2019-05-16T10:54:10.512Z,11.90
2019-05-16T10:54:57.410Z,11.94
2019-05-16T10:55:48.004Z,11.96
2019-05-16T10:56:48.163Z,11.99
2019-05-16T10:57:48.096Z,11.96
2019-05-16T10:59:21.570Z,11.96
2019-05-16T11:00:05.091Z,11.96
2019-05-16T11:01:11.788Z,11.99
2019-05-16T11:01:48.966Z,11.95
2019-05-16T11:02:47.970Z,11.90
2019-05-16T11:03:49.227Z,12.07
2019-05-16T11:04:59.947Z,12.10
2019-05-16T11:06:03.069Z,12.05
2019-05-16T11:06:48.886Z,12.19
2019-05-16T11:07:50.650Z,12.13
2019-05-16T11:08:48.854Z,12.10
2019-05-16T11:09:58.273Z,12.13
2019-05-16T11:10:48.860Z,12.20
2019-05-16T11:11:47.880Z,12.07
2019-05-16T11:12:54.873Z,12.14
2019-05-16T11:13:51.058Z,12.09
2019-05-16T11:14:47.968Z,11.99
2019-05-16T11:15:47.775Z,12.01
2019-05-16T11:16:47.772Z,12.01
2019-05-16T11:17:47.751Z,11.99
2019-05-16T11:18:47.764Z,11.99
2019-05-16T11:19:47.734Z,11.98
2019-05-16T11:20:49.154Z,12.01
2019-05-16T11:21:47.704Z,12.07
2019-05-16T11:22:47.921Z,12.14
2019-05-16T11:23:47.702Z,12.14
2019-05-16T11:24:47.673Z,12.09
2019-05-16T11:25:47.658Z,12.13
2019-05-16T11:26:47.651Z,12.10
2019-05-16T11:27:47.642Z,12.12
2019-05-16T11:28:48.792Z,12.07
2019-05-16T11:29:47.615Z,12.19
2019-05-16T11:30:48.141Z,12.16
2019-05-16T11:31:47.591Z,12.21
2019-05-16T11:32:47.592Z,12.24
2019-05-16T11:33:47.854Z,12.24
2019-05-16T11:34:48.054Z,12.24
2019-05-16T11:35:47.889Z,12.31
2019-05-16T11:36:47.889Z,12.32
2019-05-16T11:37:47.541Z,12.32
2019-05-16T11:38:47.787Z,12.32
2019-05-16T11:39:47.501Z,12.29
2019-05-16T11:40:47.793Z,12.29
2019-05-16T11:41:47.740Z,12.23
2019-05-16T11:43:05.154Z,12.34
2019-05-16T11:43:48.460Z,12.24
2019-05-16T11:44:47.963Z,12.28
2019-05-16T11:45:47.448Z,12.29
2019-05-16T11:46:48.967Z,12.24
2019-05-16T11:47:47.437Z,12.32
2019-05-16T11:48:49.022Z,12.35
2019-05-16T11:49:47.729Z,12.42
2019-05-16T11:50:48.001Z,12.42
2019-05-16T11:51:47.499Z,12.42
2019-05-16T11:52:47.896Z,12.49
2019-05-16T11:53:47.705Z,12.52
2019-05-16T11:54:47.330Z,12.53
2019-05-16T11:55:54.545Z,12.52
2019-05-16T11:56:48.330Z,12.67
2019-05-16T11:57:47.724Z,12.67
2019-05-16T11:58:47.447Z,12.72
2019-05-16T11:59:47.276Z,12.78
2019-05-16T12:00:48.209Z,12.83
2019-05-16T12:01:47.598Z,12.86
2019-05-16T12:02:47.918Z,12.89
2019-05-16T12:03:47.251Z,12.92
2019-05-16T12:04:47.472Z,12.92
2019-05-16T12:05:48.160Z,12.87
2019-05-16T12:06:47.201Z,12.87
2019-05-16T12:07:48.556Z,12.87
2019-05-16T12:08:47.207Z,12.92
2019-05-16T12:09:54.555Z,12.90
2019-05-16T12:10:48.156Z,12.89
2019-05-16T12:11:47.148Z,12.93
2019-05-16T12:12:47.133Z,12.96
2019-05-16T12:13:47.681Z,12.92
2019-05-16T12:14:47.117Z,12.92
2019-05-16T12:15:47.114Z,12.89
2019-05-16T12:16:47.436Z,12.93
2019-05-16T12:18:00.193Z,12.97
2019-05-16T12:18:48.075Z,12.92
2019-05-16T12:19:49.055Z,12.96
2019-05-16T12:20:48.047Z,12.92
2019-05-16T12:21:47.047Z,12.92
2019-05-16T12:22:47.023Z,12.87
2019-05-16T12:23:47.409Z,12.90
2019-05-16T12:24:47.774Z,12.90
2019-05-16T12:25:47.553Z,12.92
2019-05-16T12:26:47.981Z,12.90
2019-05-16T12:27:48.081Z,12.95
2019-05-16T12:28:46.969Z,12.93
2019-05-16T12:29:50.261Z,12.93
2019-05-16T12:30:47.941Z,12.89
2019-05-16T12:31:57.759Z,12.93
2019-05-16T12:32:47.927Z,12.90
2019-05-16T12:33:47.824Z,12.90
2019-05-16T12:34:46.890Z,12.86
2019-05-16T12:35:47.595Z,12.87
2019-05-16T12:36:47.348Z,12.92
2019-05-16T12:37:47.972Z,12.89
2019-05-16T12:38:46.890Z,12.95
2019-05-16T12:39:47.136Z,12.93
2019-05-16T12:40:47.972Z,12.96
2019-05-16T12:41:49.204Z,12.96
2019-05-16T12:42:47.290Z,12.93
2019-05-16T12:43:53.161Z,13.03
2019-05-16T12:44:47.787Z,12.96
2019-05-16T12:45:47.369Z,13.04
2019-05-16T12:46:47.436Z,13.00
2019-05-16T12:47:47.362Z,12.93
2019-05-16T12:48:47.417Z,12.96
2019-05-16T12:49:47.224Z,12.97
2019-05-16T12:50:47.930Z,12.93
2019-05-16T12:51:46.722Z,12.95
2019-05-16T12:52:47.406Z,12.97
2019-05-16T12:53:47.687Z,13.01
2019-05-16T12:54:47.553Z,12.90
2019-05-16T12:55:47.537Z,13.00
2019-05-16T12:56:48.217Z,12.96
2019-05-16T12:57:48.931Z,13.00
2019-05-16T12:58:47.261Z,13.03
2019-05-16T12:59:50.059Z,12.97
2019-05-16T13:00:53.941Z,13.00
2019-05-16T13:01:48.234Z,12.96
2019-05-16T13:02:47.371Z,13.00
2019-05-16T13:03:48.115Z,12.96